sensor_id;sensor_type;location;lat;lon;timestamp;pressure;altitude;pressure_sealevel;temperature;humidity
9853;BME280;4965;43.238;27.864;2022-09-12T00:01:53;99610.56;;;19.64;100.00
9853;BME280;4965;43.238;27.864;2022-09-12T00:04:19;99608.97;;;19.69;100.00
9853;BME280;4965;43.238;27.864;2022-09-12T00:06:50;99604.84;;;19.80;100.00
9853;BME280;4965;43.238;27.864;2022-09-12T00:09:17;99594.72;;;19.82;100.00
9853;BME280;4965;43.238;27.864;2022-09-12T00:11:45;99600.72;;;19.84;100.00
9853;BME280;4965;43.238;27.864;2022-09-12T00:14:14;99577.16;;;19.66;100.00
9853;BME280;4965;43.238;27.864;2022-09-12T00:16:42;99607.91;;;19.70;100.00
9853;BME280;4965;43.238;27.864;2022-09-12T00:19:09;99609.97;;;19.68;100.00
9853;BME280;4965;43.238;27.864;2022-09-12T00:21:38;99613.25;;;19.64;100.00
9853;BME280;4965;43.238;27.864;2022-09-12T00:24:08;99598.13;;;19.43;100.00
9853;BME280;4965;43.238;27.864;2022-09-12T00:26:36;99638.34;;;19.43;100.00
9853;BME280;4965;43.238;27.864;2022-09-12T00:29:03;99634.59;;;19.37;100.00
9853;BME280;4965;43.238;27.864;2022-09-12T00:31:30;99618.69;;;19.29;100.00
9853;BME280;4965;43.238;27.864;2022-09-12T00:33:58;99631.25;;;19.29;100.00
9853;BME280;4965;43.238;27.864;2022-09-12T00:36:27;99633.41;;;19.12;100.00
9853;BME280;4965;43.238;27.864;2022-09-12T00:38:54;99614.97;;;18.89;100.00
9853;BME280;4965;43.238;27.864;2022-09-12T00:41:25;99635.75;;;18.87;100.00
9853;BME280;4965;43.238;27.864;2022-09-12T00:43:54;99637.41;;;18.88;100.00
9853;BME280;4965;43.238;27.864;2022-09-12T00:46:28;99629.34;;;18.82;100.00
9853;BME280;4965;43.238;27.864;2022-09-12T00:48:59;99652.59;;;18.81;100.00
9853;BME280;4965;43.238;27.864;2022-09-12T00:51:28;99664.69;;;18.98;100.00
9853;BME280;4965;43.238;27.864;2022-09-12T00:53:59;99676.38;;;18.91;100.00
9853;BME280;4965;43.238;27.864;2022-09-12T00:56:30;99684.72;;;18.81;100.00
9853;BME280;4965;43.238;27.864;2022-09-12T00:59:02;99703.03;;;18.78;100.00
9853;BME280;4965;43.238;27.864;2022-09-12T01:01:30;99706.91;;;18.69;100.00
9853;BME280;4965;43.238;27.864;2022-09-12T01:03:57;99708.22;;;18.58;100.00
9853;BME280;4965;43.238;27.864;2022-09-12T01:06:26;99714.06;;;18.47;100.00
9853;BME280;4965;43.238;27.864;2022-09-12T01:08:55;99692.22;;;18.43;100.00
9853;BME280;4965;43.238;27.864;2022-09-12T01:11:24;99710.00;;;18.51;100.00
9853;BME280;4965;43.238;27.864;2022-09-12T01:13:53;99691.06;;;18.31;100.00
9853;BME280;4965;43.238;27.864;2022-09-12T01:16:20;99694.19;;;18.35;100.00
9853;BME280;4965;43.238;27.864;2022-09-12T01:18:56;99691.66;;;18.27;100.00
9853;BME280;4965;43.238;27.864;2022-09-12T01:21:35;99690.25;;;18.31;100.00
9853;BME280;4965;43.238;27.864;2022-09-12T01:24:32;99687.31;;;18.04;100.00
9853;BME280;4965;43.238;27.864;2022-09-12T01:27:23;99688.03;;;18.13;100.00
9853;BME280;4965;43.238;27.864;2022-09-12T01:30:06;99664.47;;;18.02;100.00
9853;BME280;4965;43.238;27.864;2022-09-12T01:32:42;99691.09;;;18.10;100.00
9853;BME280;4965;43.238;27.864;2022-09-12T01:35:18;99680.84;;;18.14;100.00
9853;BME280;4965;43.238;27.864;2022-09-12T01:37:53;99670.88;;;18.07;100.00
9853;BME280;4965;43.238;27.864;2022-09-12T01:40:29;99685.53;;;18.12;100.00
9853;BME280;4965;43.238;27.864;2022-09-12T01:43:04;99690.06;;;18.11;100.00
9853;BME280;4965;43.238;27.864;2022-09-12T01:45:42;99696.63;;;18.08;100.00
9853;BME280;4965;43.238;27.864;2022-09-12T01:48:15;99700.00;;;18.17;100.00
9853;BME280;4965;43.238;27.864;2022-09-12T01:50:49;99692.59;;;18.19;100.00
9853;BME280;4965;43.238;27.864;2022-09-12T01:53:21;99681.13;;;18.04;100.00
9853;BME280;4965;43.238;27.864;2022-09-12T01:55:52;99689.41;;;18.09;100.00
9853;BME280;4965;43.238;27.864;2022-09-12T01:58:25;99686.81;;;17.94;100.00
9853;BME280;4965;43.238;27.864;2022-09-12T02:00:57;99686.97;;;17.93;100.00
9853;BME280;4965;43.238;27.864;2022-09-12T02:03:31;99652.00;;;17.73;100.00
9853;BME280;4965;43.238;27.864;2022-09-12T02:06:04;99666.09;;;17.82;100.00
9853;BME280;4965;43.238;27.864;2022-09-12T02:08:38;99666.16;;;17.88;100.00
9853;BME280;4965;43.238;27.864;2022-09-12T02:11:08;99671.88;;;17.85;100.00
9853;BME280;4965;43.238;27.864;2022-09-12T02:13:40;99665.13;;;17.68;100.00
9853;BME280;4965;43.238;27.864;2022-09-12T02:16:16;99676.34;;;17.78;100.00
9853;BME280;4965;43.238;27.864;2022-09-12T02:18:49;99653.31;;;17.63;100.00
9853;BME280;4965;43.238;27.864;2022-09-12T02:21:18;99672.81;;;17.78;100.00
9853;BME280;4965;43.238;27.864;2022-09-12T02:23:50;99665.56;;;17.72;100.00
9853;BME280;4965;43.238;27.864;2022-09-12T02:26:22;99674.44;;;17.72;100.00
9853;BME280;4965;43.238;27.864;2022-09-12T02:28:51;99668.94;;;17.80;100.00
9853;BME280;4965;43.238;27.864;2022-09-12T02:31:22;99663.97;;;17.77;100.00
9853;BME280;4965;43.238;27.864;2022-09-12T02:34:03;99677.44;;;17.84;100.00
9853;BME280;4965;43.238;27.864;2022-09-12T02:36:37;99666.97;;;17.53;100.00
9853;BME280;4965;43.238;27.864;2022-09-12T02:39:08;99652.88;;;17.44;100.00
9853;BME280;4965;43.238;27.864;2022-09-12T02:41:35;99662.81;;;17.50;100.00
9853;BME280;4965;43.238;27.864;2022-09-12T02:44:03;99653.13;;;17.49;100.00
9853;BME280;4965;43.238;27.864;2022-09-12T02:46:35;99654.19;;;17.34;100.00
9853;BME280;4965;43.238;27.864;2022-09-12T02:49:06;99643.03;;;17.30;100.00
9853;BME280;4965;43.238;27.864;2022-09-12T02:51:33;99659.41;;;17.42;100.00
9853;BME280;4965;43.238;27.864;2022-09-12T02:54:00;99668.59;;;17.54;100.00
9853;BME280;4965;43.238;27.864;2022-09-12T02:56:29;99678.38;;;17.61;100.00
9853;BME280;4965;43.238;27.864;2022-09-12T02:59:00;99658.69;;;17.48;100.00
9853;BME280;4965;43.238;27.864;2022-09-12T03:01:39;99671.84;;;17.49;100.00
9853;BME280;4965;43.238;27.864;2022-09-12T03:04:34;99665.50;;;17.36;100.00
9853;BME280;4965;43.238;27.864;2022-09-12T03:07:11;99658.13;;;17.38;100.00
9853;BME280;4965;43.238;27.864;2022-09-12T03:09:44;99656.88;;;17.34;100.00
9853;BME280;4965;43.238;27.864;2022-09-12T03:12:25;99660.00;;;17.37;100.00
9853;BME280;4965;43.238;27.864;2022-09-12T03:15:08;99657.38;;;17.44;100.00
9853;BME280;4965;43.238;27.864;2022-09-12T03:17:49;99659.06;;;17.45;100.00
9853;BME280;4965;43.238;27.864;2022-09-12T03:20:31;99658.47;;;17.49;100.00
9853;BME280;4965;43.238;27.864;2022-09-12T03:23:04;99657.50;;;17.36;100.00
9853;BME280;4965;43.238;27.864;2022-09-12T03:25:39;99632.16;;;17.32;100.00
9853;BME280;4965;43.238;27.864;2022-09-12T03:28:11;99616.91;;;17.26;100.00
9853;BME280;4965;43.238;27.864;2022-09-12T03:30:41;99632.63;;;17.35;100.00
9853;BME280;4965;43.238;27.864;2022-09-12T03:33:10;99628.75;;;17.23;100.00
9853;BME280;4965;43.238;27.864;2022-09-12T03:35:39;99635.22;;;17.29;100.00
9853;BME280;4965;43.238;27.864;2022-09-12T03:38:06;99617.25;;;17.23;100.00
9853;BME280;4965;43.238;27.864;2022-09-12T03:40:34;99604.47;;;17.03;100.00
9853;BME280;4965;43.238;27.864;2022-09-12T03:43:01;99634.94;;;17.24;100.00
9853;BME280;4965;43.238;27.864;2022-09-12T03:45:28;99625.53;;;17.28;100.00
9853;BME280;4965;43.238;27.864;2022-09-12T03:47:55;99632.53;;;17.29;100.00
9853;BME280;4965;43.238;27.864;2022-09-12T03:50:22;99622.84;;;17.42;100.00
9853;BME280;4965;43.238;27.864;2022-09-12T03:52:51;99629.38;;;17.40;100.00
9853;BME280;4965;43.238;27.864;2022-09-12T03:55:18;99637.69;;;17.45;100.00
9853;BME280;4965;43.238;27.864;2022-09-12T03:57:45;99637.13;;;17.35;100.00
9853;BME280;4965;43.238;27.864;2022-09-12T04:00:13;99635.19;;;17.43;100.00
9853;BME280;4965;43.238;27.864;2022-09-12T04:02:40;99631.50;;;17.44;100.00
9853;BME280;4965;43.238;27.864;2022-09-12T04:05:07;99643.03;;;17.45;100.00
9853;BME280;4965;43.238;27.864;2022-09-12T04:07:34;99658.22;;;17.59;100.00
9853;BME280;4965;43.238;27.864;2022-09-12T04:10:03;99669.19;;;17.64;100.00
9853;BME280;4965;43.238;27.864;2022-09-12T04:12:30;99635.84;;;17.60;100.00
9853;BME280;4965;43.238;27.864;2022-09-12T04:14:57;99673.63;;;18.14;100.00
9853;BME280;4965;43.238;27.864;2022-09-12T04:17:24;99662.81;;;18.22;100.00
9853;BME280;4965;43.238;27.864;2022-09-12T04:19:50;99666.56;;;18.28;100.00
9853;BME280;4965;43.238;27.864;2022-09-12T04:22:17;99678.03;;;18.22;100.00
9853;BME280;4965;43.238;27.864;2022-09-12T04:24:45;99671.78;;;18.15;100.00
9853;BME280;4965;43.238;27.864;2022-09-12T04:27:13;99666.28;;;18.23;100.00
9853;BME280;4965;43.238;27.864;2022-09-12T04:29:40;99673.63;;;18.14;100.00
9853;BME280;4965;43.238;27.864;2022-09-12T04:32:07;99674.09;;;18.18;100.00
9853;BME280;4965;43.238;27.864;2022-09-12T04:34:34;99657.06;;;18.04;100.00
9853;BME280;4965;43.238;27.864;2022-09-12T04:37:01;99663.69;;;18.08;100.00
9853;BME280;4965;43.238;27.864;2022-09-12T04:39:28;99682.28;;;17.95;100.00
9853;BME280;4965;43.238;27.864;2022-09-12T04:41:55;99686.13;;;18.07;100.00
9853;BME280;4965;43.238;27.864;2022-09-12T04:44:24;99695.88;;;18.15;100.00
9853;BME280;4965;43.238;27.864;2022-09-12T04:46:51;99699.03;;;18.25;100.00
9853;BME280;4965;43.238;27.864;2022-09-12T04:49:18;99690.38;;;18.23;100.00
9853;BME280;4965;43.238;27.864;2022-09-12T04:51:45;99666.25;;;17.95;100.00
9853;BME280;4965;43.238;27.864;2022-09-12T04:54:14;99671.03;;;17.99;100.00
9853;BME280;4965;43.238;27.864;2022-09-12T04:56:43;99678.91;;;18.07;100.00
9853;BME280;4965;43.238;27.864;2022-09-12T04:59:10;99693.56;;;18.12;100.00
9853;BME280;4965;43.238;27.864;2022-09-12T05:01:39;99701.34;;;18.06;100.00
9853;BME280;4965;43.238;27.864;2022-09-12T05:04:06;99683.06;;;18.10;100.00
9853;BME280;4965;43.238;27.864;2022-09-12T05:06:35;99697.00;;;18.27;100.00
9853;BME280;4965;43.238;27.864;2022-09-12T05:09:04;99702.88;;;18.37;100.00
9853;BME280;4965;43.238;27.864;2022-09-12T05:11:33;99678.03;;;18.22;100.00
9853;BME280;4965;43.238;27.864;2022-09-12T05:14:00;99696.19;;;18.69;100.00
9853;BME280;4965;43.238;27.864;2022-09-12T05:16:28;99691.75;;;18.82;100.00
9853;BME280;4965;43.238;27.864;2022-09-12T05:18:57;99694.38;;;19.03;100.00
9853;BME280;4965;43.238;27.864;2022-09-12T05:21:25;99679.59;;;19.14;100.00
9853;BME280;4965;43.238;27.864;2022-09-12T05:23:53;99664.25;;;19.36;100.00
9853;BME280;4965;43.238;27.864;2022-09-12T05:26:22;99677.59;;;19.64;100.00
9853;BME280;4965;43.238;27.864;2022-09-12T05:28:50;99677.03;;;19.75;100.00
9853;BME280;4965;43.238;27.864;2022-09-12T05:31:19;99647.72;;;19.67;100.00
9853;BME280;4965;43.238;27.864;2022-09-12T05:33:47;99689.50;;;20.09;100.00
9853;BME280;4965;43.238;27.864;2022-09-12T05:36:17;99686.28;;;20.72;100.00
9853;BME280;4965;43.238;27.864;2022-09-12T05:38:45;99679.06;;;21.63;100.00
9853;BME280;4965;43.238;27.864;2022-09-12T05:41:14;99665.88;;;22.00;100.00
9853;BME280;4965;43.238;27.864;2022-09-12T05:43:41;99678.94;;;22.59;100.00
9853;BME280;4965;43.238;27.864;2022-09-12T05:46:11;99670.75;;;22.47;100.00
9853;BME280;4965;43.238;27.864;2022-09-12T05:48:40;99672.09;;;23.06;100.00
9853;BME280;4965;43.238;27.864;2022-09-12T05:51:09;99666.00;;;23.53;100.00
9853;BME280;4965;43.238;27.864;2022-09-12T05:53:39;99675.75;;;23.84;100.00
9853;BME280;4965;43.238;27.864;2022-09-12T05:56:08;99644.50;;;24.06;100.00
9853;BME280;4965;43.238;27.864;2022-09-12T05:58:38;99666.59;;;24.68;100.00
9853;BME280;4965;43.238;27.864;2022-09-12T06:01:08;99665.38;;;23.99;100.00
9853;BME280;4965;43.238;27.864;2022-09-12T06:03:39;99660.34;;;23.73;100.00
9853;BME280;4965;43.238;27.864;2022-09-12T06:06:07;99657.66;;;23.73;100.00
9853;BME280;4965;43.238;27.864;2022-09-12T06:08:40;99641.13;;;23.81;100.00
9853;BME280;4965;43.238;27.864;2022-09-12T06:11:10;99662.63;;;23.88;100.00
9853;BME280;4965;43.238;27.864;2022-09-12T06:13:38;99667.16;;;24.05;100.00
9853;BME280;4965;43.238;27.864;2022-09-12T06:16:08;99666.00;;;23.83;100.00
9853;BME280;4965;43.238;27.864;2022-09-12T06:18:36;99663.59;;;23.45;100.00
9853;BME280;4965;43.238;27.864;2022-09-12T06:21:06;99665.66;;;23.80;100.00
9853;BME280;4965;43.238;27.864;2022-09-12T06:23:34;99668.50;;;23.85;100.00
9853;BME280;4965;43.238;27.864;2022-09-12T06:26:03;99668.56;;;24.08;100.00
9853;BME280;4965;43.238;27.864;2022-09-12T06:28:31;99663.31;;;23.83;100.00
9853;BME280;4965;43.238;27.864;2022-09-12T06:31:02;99646.94;;;23.48;100.00
9853;BME280;4965;43.238;27.864;2022-09-12T06:33:30;99664.75;;;23.67;100.00
9853;BME280;4965;43.238;27.864;2022-09-12T06:36:02;99668.88;;;24.18;100.00
9853;BME280;4965;43.238;27.864;2022-09-12T06:38:29;99670.63;;;23.94;100.00
9853;BME280;4965;43.238;27.864;2022-09-12T06:40:56;99663.81;;;23.92;100.00
9853;BME280;4965;43.238;27.864;2022-09-12T06:43:27;99676.09;;;23.58;100.00
9853;BME280;4965;43.238;27.864;2022-09-12T06:45:54;99674.81;;;23.79;100.00
9853;BME280;4965;43.238;27.864;2022-09-12T06:48:21;99663.63;;;23.75;100.00
9853;BME280;4965;43.238;27.864;2022-09-12T06:50:57;99670.47;;;23.78;100.00
9853;BME280;4965;43.238;27.864;2022-09-12T06:53:25;99666.72;;;24.08;100.00
9853;BME280;4965;43.238;27.864;2022-09-12T06:55:56;99643.06;;;23.62;100.00
9853;BME280;4965;43.238;27.864;2022-09-12T06:58:24;99661.84;;;23.69;100.00
9853;BME280;4965;43.238;27.864;2022-09-12T07:00:59;99657.09;;;23.83;100.00
9853;BME280;4965;43.238;27.864;2022-09-12T07:03:27;99663.47;;;23.88;100.00
9853;BME280;4965;43.238;27.864;2022-09-12T07:05:54;99641.41;;;23.91;100.00
9853;BME280;4965;43.238;27.864;2022-09-12T07:08:21;99662.28;;;24.14;100.00
9853;BME280;4965;43.238;27.864;2022-09-12T07:10:48;99671.16;;;24.33;100.00
9853;BME280;4965;43.238;27.864;2022-09-12T07:13:15;99674.25;;;24.59;100.00
9853;BME280;4965;43.238;27.864;2022-09-12T07:15:42;99669.78;;;24.77;100.00
9853;BME280;4965;43.238;27.864;2022-09-12T07:18:11;99668.75;;;24.78;100.00
9853;BME280;4965;43.238;27.864;2022-09-12T07:20:38;99672.13;;;24.61;100.00
9853;BME280;4965;43.238;27.864;2022-09-12T07:23:06;99642.22;;;23.92;100.00
9853;BME280;4965;43.238;27.864;2022-09-12T07:25:32;99663.94;;;24.15;100.00
9853;BME280;4965;43.238;27.864;2022-09-12T07:27:59;99661.31;;;24.50;100.00
9853;BME280;4965;43.238;27.864;2022-09-12T07:30:26;99667.75;;;24.49;100.00
9853;BME280;4965;43.238;27.864;2022-09-12T07:32:53;99665.91;;;24.73;100.00
9853;BME280;4965;43.238;27.864;2022-09-12T07:35:22;99663.34;;;24.78;100.00
9853;BME280;4965;43.238;27.864;2022-09-12T07:37:48;99661.47;;;24.66;100.00
9853;BME280;4965;43.238;27.864;2022-09-12T07:40:15;99669.13;;;24.93;100.00
9853;BME280;4965;43.238;27.864;2022-09-12T07:42:42;99670.31;;;25.08;100.00
9853;BME280;4965;43.238;27.864;2022-09-12T07:45:09;99662.16;;;25.32;100.00
9853;BME280;4965;43.238;27.864;2022-09-12T07:47:37;99663.25;;;25.71;100.00
9853;BME280;4965;43.238;27.864;2022-09-12T07:50:05;99655.19;;;25.87;100.00
9853;BME280;4965;43.238;27.864;2022-09-12T07:52:34;99658.47;;;25.89;100.00
9853;BME280;4965;43.238;27.864;2022-09-12T07:55:01;99662.13;;;26.12;100.00
9853;BME280;4965;43.238;27.864;2022-09-12T07:57:28;99651.75;;;26.53;100.00
9853;BME280;4965;43.238;27.864;2022-09-12T07:59:54;99657.69;;;27.00;100.00
9853;BME280;4965;43.238;27.864;2022-09-12T08:02:21;99649.00;;;27.20;100.00
9853;BME280;4965;43.238;27.864;2022-09-12T08:04:48;99656.56;;;27.57;97.15
9853;BME280;4965;43.238;27.864;2022-09-12T08:07:16;99649.09;;;28.17;93.51
9853;BME280;4965;43.238;27.864;2022-09-12T08:09:45;99639.63;;;27.98;92.89
9853;BME280;4965;43.238;27.864;2022-09-12T08:12:12;99650.44;;;27.93;91.00
9853;BME280;4965;43.238;27.864;2022-09-12T08:14:39;99651.47;;;28.40;89.20
9853;BME280;4965;43.238;27.864;2022-09-12T08:17:06;99654.25;;;27.92;86.48
9853;BME280;4965;43.238;27.864;2022-09-12T08:19:33;99660.16;;;28.37;87.34
9853;BME280;4965;43.238;27.864;2022-09-12T08:21:59;99660.03;;;28.27;85.06
9853;BME280;4965;43.238;27.864;2022-09-12T08:24:27;99649.66;;;27.71;90.36
9853;BME280;4965;43.238;27.864;2022-09-12T08:26:55;99647.91;;;27.60;90.65
9853;BME280;4965;43.238;27.864;2022-09-12T08:29:22;99653.34;;;27.60;90.03
9853;BME280;4965;43.238;27.864;2022-09-12T08:31:49;99647.97;;;27.05;92.65
9853;BME280;4965;43.238;27.864;2022-09-12T08:34:16;99648.00;;;26.71;92.91
9853;BME280;4965;43.238;27.864;2022-09-12T08:36:43;99644.22;;;26.89;94.20
9853;BME280;4965;43.238;27.864;2022-09-12T08:39:11;99643.34;;;26.83;94.35
9853;BME280;4965;43.238;27.864;2022-09-12T08:41:40;99636.13;;;27.32;91.29
9853;BME280;4965;43.238;27.864;2022-09-12T08:47:20;99634.81;;;27.35;92.42
9853;BME280;4965;43.238;27.864;2022-09-12T08:49:53;99631.16;;;27.24;90.90
9853;BME280;4965;43.238;27.864;2022-09-12T08:52:26;99629.25;;;27.03;90.31
9853;BME280;4965;43.238;27.864;2022-09-12T08:54:55;99626.19;;;27.60;88.27
9853;BME280;4965;43.238;27.864;2022-09-12T08:57:22;99623.47;;;27.38;90.01
9853;BME280;4965;43.238;27.864;2022-09-12T08:59:51;99627.31;;;27.90;85.61
9853;BME280;4965;43.238;27.864;2022-09-12T09:02:33;99624.00;;;27.40;88.05
9853;BME280;4965;43.238;27.864;2022-09-12T09:05:15;99620.78;;;26.66;92.23
9853;BME280;4965;43.238;27.864;2022-09-12T09:07:59;99626.28;;;26.88;89.83
9853;BME280;4965;43.238;27.864;2022-09-12T09:10:39;99621.38;;;26.35;92.61
9853;BME280;4965;43.238;27.864;2022-09-12T09:13:18;99606.69;;;26.31;93.17
9853;BME280;4965;43.238;27.864;2022-09-12T09:16:10;99603.31;;;26.24;93.81
9853;BME280;4965;43.238;27.864;2022-09-12T09:18:41;99609.63;;;26.63;85.10
9853;BME280;4965;43.238;27.864;2022-09-12T09:21:18;99594.91;;;26.75;84.49
9853;BME280;4965;43.238;27.864;2022-09-12T09:23:49;99593.97;;;27.03;82.36
9853;BME280;4965;43.238;27.864;2022-09-12T09:26:21;99581.84;;;26.89;80.86
9853;BME280;4965;43.238;27.864;2022-09-12T09:28:54;99597.19;;;27.43;78.30
9853;BME280;4965;43.238;27.864;2022-09-12T09:31:25;99593.59;;;26.94;76.91
9853;BME280;4965;43.238;27.864;2022-09-12T09:33:55;99599.13;;;27.70;77.51
9853;BME280;4965;43.238;27.864;2022-09-12T09:36:40;99589.84;;;27.92;80.17
9853;BME280;4965;43.238;27.864;2022-09-12T09:39:16;99589.91;;;28.61;76.47
9853;BME280;4965;43.238;27.864;2022-09-12T09:41:51;99589.09;;;28.61;75.73
9853;BME280;4965;43.238;27.864;2022-09-12T09:44:22;99582.38;;;28.68;69.80
9853;BME280;4965;43.238;27.864;2022-09-12T09:46:53;99582.84;;;29.12;69.65
9853;BME280;4965;43.238;27.864;2022-09-12T09:49:21;99587.66;;;28.90;70.70
9853;BME280;4965;43.238;27.864;2022-09-12T09:51:49;99576.94;;;29.25;68.89
9853;BME280;4965;43.238;27.864;2022-09-12T09:54:18;99584.13;;;29.42;67.92
9853;BME280;4965;43.238;27.864;2022-09-12T09:56:47;99567.25;;;29.55;67.11
9853;BME280;4965;43.238;27.864;2022-09-12T09:59:15;99584.56;;;28.71;68.61
9853;BME280;4965;43.238;27.864;2022-09-12T10:01:46;99584.31;;;28.78;68.47
9853;BME280;4965;43.238;27.864;2022-09-12T10:04:21;99578.88;;;28.78;68.15
9853;BME280;4965;43.238;27.864;2022-09-12T10:06:50;99593.59;;;28.77;68.30
9853;BME280;4965;43.238;27.864;2022-09-12T10:09:21;99582.50;;;28.89;66.62
9853;BME280;4965;43.238;27.864;2022-09-12T10:11:51;99585.22;;;28.94;66.01
9853;BME280;4965;43.238;27.864;2022-09-12T10:14:36;99578.59;;;28.42;68.17
9853;BME280;4965;43.238;27.864;2022-09-12T10:17:25;99547.72;;;28.54;66.19
9853;BME280;4965;43.238;27.864;2022-09-12T10:19:55;99591.78;;;28.19;68.19
9853;BME280;4965;43.238;27.864;2022-09-12T10:22:25;99589.97;;;27.76;72.78
9853;BME280;4965;43.238;27.864;2022-09-12T10:24:55;99587.78;;;28.05;69.92
9853;BME280;4965;43.238;27.864;2022-09-12T10:27:25;99584.72;;;27.69;69.30
9853;BME280;4965;43.238;27.864;2022-09-12T10:29:55;99589.47;;;28.42;68.87
9853;BME280;4965;43.238;27.864;2022-09-12T10:32:28;99578.94;;;28.46;65.85
9853;BME280;4965;43.238;27.864;2022-09-12T10:34:59;99580.44;;;28.32;66.43
9853;BME280;4965;43.238;27.864;2022-09-12T10:37:30;99574.63;;;28.92;65.18
9853;BME280;4965;43.238;27.864;2022-09-12T10:39:59;99565.44;;;29.13;63.54
9853;BME280;4965;43.238;27.864;2022-09-12T10:42:45;99568.75;;;29.15;62.45
9853;BME280;4965;43.238;27.864;2022-09-12T10:45:25;99578.22;;;28.61;65.27
9853;BME280;4965;43.238;27.864;2022-09-12T10:47:54;99583.53;;;28.82;65.19
9853;BME280;4965;43.238;27.864;2022-09-12T10:50:27;99589.91;;;28.24;66.41
9853;BME280;4965;43.238;27.864;2022-09-12T10:53:12;99587.81;;;27.78;66.31
9853;BME280;4965;43.238;27.864;2022-09-12T10:55:47;99587.75;;;27.73;67.53
9853;BME280;4965;43.238;27.864;2022-09-12T10:58:41;99592.13;;;27.30;68.69
9853;BME280;4965;43.238;27.864;2022-09-12T11:01:25;99586.28;;;26.78;71.96
9853;BME280;4965;43.238;27.864;2022-09-12T11:07:18;99560.97;;;27.33;71.27
9853;BME280;4965;43.238;27.864;2022-09-12T11:09:53;99579.50;;;27.89;68.83
9853;BME280;4965;43.238;27.864;2022-09-12T11:12:34;99566.00;;;28.26;64.52
9853;BME280;4965;43.238;27.864;2022-09-12T11:15:17;99556.63;;;28.86;62.36
9853;BME280;4965;43.238;27.864;2022-09-12T11:17:50;99568.84;;;29.41;60.36
9853;BME280;4965;43.238;27.864;2022-09-12T11:20:51;99569.59;;;28.69;60.22
9853;BME280;4965;43.238;27.864;2022-09-12T11:23:46;99573.53;;;28.19;61.93
9853;BME280;4965;43.238;27.864;2022-09-12T11:26:25;99571.81;;;27.81;63.43
9853;BME280;4965;43.238;27.864;2022-09-12T11:29:04;99566.38;;;27.55;63.79
9853;BME280;4965;43.238;27.864;2022-09-12T11:31:50;99573.22;;;28.11;62.38
9853;BME280;4965;43.238;27.864;2022-09-12T11:34:24;99571.22;;;28.06;62.43
9853;BME280;4965;43.238;27.864;2022-09-12T11:37:05;99572.69;;;27.38;64.61
9853;BME280;4965;43.238;27.864;2022-09-12T11:39:38;99575.50;;;27.70;63.52
9853;BME280;4965;43.238;27.864;2022-09-12T11:42:09;99565.06;;;27.57;62.09
9853;BME280;4965;43.238;27.864;2022-09-12T11:44:41;99563.66;;;27.81;64.07
9853;BME280;4965;43.238;27.864;2022-09-12T11:47:10;99558.91;;;28.25;63.72
9853;BME280;4965;43.238;27.864;2022-09-12T11:49:40;99554.94;;;28.38;65.14
9853;BME280;4965;43.238;27.864;2022-09-12T11:52:13;99551.25;;;28.96;60.94
9853;BME280;4965;43.238;27.864;2022-09-12T11:54:44;99559.50;;;29.21;58.48
9853;BME280;4965;43.238;27.864;2022-09-12T11:57:15;99552.03;;;28.97;55.75
9853;BME280;4965;43.238;27.864;2022-09-12T11:59:47;99555.72;;;29.27;54.50
9853;BME280;4965;43.238;27.864;2022-09-12T12:02:21;99532.19;;;29.01;54.35
9853;BME280;4965;43.238;27.864;2022-09-12T12:05:01;99552.03;;;28.92;56.60
9853;BME280;4965;43.238;27.864;2022-09-12T12:07:37;99549.69;;;28.26;58.67
9853;BME280;4965;43.238;27.864;2022-09-12T12:10:21;99570.28;;;27.64;60.40
9853;BME280;4965;43.238;27.864;2022-09-12T12:12:52;99568.63;;;28.16;59.47
9853;BME280;4965;43.238;27.864;2022-09-12T12:15:21;99564.34;;;28.25;58.13
9853;BME280;4965;43.238;27.864;2022-09-12T12:18:01;99556.22;;;28.25;58.14
9853;BME280;4965;43.238;27.864;2022-09-12T12:20:30;99553.03;;;28.75;54.66
9853;BME280;4965;43.238;27.864;2022-09-12T12:22:57;99548.84;;;29.10;53.94
9853;BME280;4965;43.238;27.864;2022-09-12T12:25:38;99542.94;;;28.34;54.03
9853;BME280;4965;43.238;27.864;2022-09-12T12:28:05;99555.78;;;28.44;56.64
9853;BME280;4965;43.238;27.864;2022-09-12T12:31:00;99557.56;;;27.69;58.69
9853;BME280;4965;43.238;27.864;2022-09-12T12:36:40;99549.53;;;27.09;61.40
9853;BME280;4965;43.238;27.864;2022-09-12T12:48:57;99556.59;;;28.07;59.57
9853;BME280;4965;43.238;27.864;2022-09-12T12:51:38;99541.25;;;27.96;59.46
9853;BME280;4965;43.238;27.864;2022-09-12T12:57:30;99557.16;;;27.56;55.30
9853;BME280;4965;43.238;27.864;2022-09-12T13:00:02;99560.00;;;27.44;56.82
9853;BME280;4965;43.238;27.864;2022-09-12T13:02:34;99568.53;;;26.87;56.70
9853;BME280;4965;43.238;27.864;2022-09-12T13:05:06;99562.69;;;26.79;58.63
9853;BME280;4965;43.238;27.864;2022-09-12T13:07:42;99559.38;;;26.77;59.18
9853;BME280;4965;43.238;27.864;2022-09-12T13:10:20;99567.25;;;26.23;62.98
9853;BME280;4965;43.238;27.864;2022-09-12T13:12:49;99571.91;;;26.11;63.69
9853;BME280;4965;43.238;27.864;2022-09-12T13:15:49;99568.78;;;25.86;66.08
9853;BME280;4965;43.238;27.864;2022-09-12T13:18:20;99573.72;;;25.49;69.10
9853;BME280;4965;43.238;27.864;2022-09-12T13:20:55;99573.00;;;25.65;68.27
9853;BME280;4965;43.238;27.864;2022-09-12T13:23:27;99569.66;;;25.75;66.95
9853;BME280;4965;43.238;27.864;2022-09-12T13:25:55;99571.38;;;25.81;67.09
9853;BME280;4965;43.238;27.864;2022-09-12T13:28:25;99567.31;;;26.12;66.00
9853;BME280;4965;43.238;27.864;2022-09-12T13:31:02;99565.94;;;26.42;64.88
9853;BME280;4965;43.238;27.864;2022-09-12T13:33:36;99559.91;;;26.74;63.38
9853;BME280;4965;43.238;27.864;2022-09-12T13:36:20;99569.69;;;26.75;62.67
9853;BME280;4965;43.238;27.864;2022-09-12T13:38:56;99562.28;;;26.87;62.17
9853;BME280;4965;43.238;27.864;2022-09-12T13:41:39;99565.13;;;26.97;62.41
9853;BME280;4965;43.238;27.864;2022-09-12T13:44:15;99570.88;;;27.22;62.09
9853;BME280;4965;43.238;27.864;2022-09-12T13:46:44;99538.81;;;27.19;62.00
9853;BME280;4965;43.238;27.864;2022-09-12T13:49:18;99570.84;;;27.44;63.61
9853;BME280;4965;43.238;27.864;2022-09-12T13:51:55;99570.94;;;27.49;64.89